sensor_id;sensor_type;location;lat;lon;timestamp;pressure;altitude;pressure_sealevel;temperature;humidity
50057;BME280;36875;49.468;11.200;2023-07-22T00:01:26;97847.47;;;22.65;47.22
50057;BME280;36875;49.468;11.200;2023-07-22T00:03:53;97847.81;;;22.64;47.36
50057;BME280;36875;49.468;11.200;2023-07-22T00:06:18;97850.56;;;22.64;47.34
50057;BME280;36875;49.468;11.200;2023-07-22T00:08:44;97856.03;;;22.64;47.24
50057;BME280;36875;49.468;11.200;2023-07-22T00:11:09;97856.03;;;22.64;47.26
50057;BME280;36875;49.468;11.200;2023-07-22T00:13:35;97855.25;;;22.63;47.09
50057;BME280;36875;49.468;11.200;2023-07-22T00:16:01;97854.44;;;22.63;47.38
50057;BME280;36875;49.468;11.200;2023-07-22T00:18:27;97857.19;;;22.63;47.12
50057;BME280;36875;49.468;11.200;2023-07-22T00:20:55;97854.44;;;22.63;47.15
50057;BME280;36875;49.468;11.200;2023-07-22T00:23:20;97848.13;;;22.62;47.06
50057;BME280;36875;49.468;11.200;2023-07-22T00:25:46;97850.09;;;22.62;47.10
50057;BME280;36875;49.468;11.200;2023-07-22T00:28:12;97846.22;;;22.63;47.15
50057;BME280;36875;49.468;11.200;2023-07-22T00:30:38;97846.53;;;22.61;47.04
50057;BME280;36875;49.468;11.200;2023-07-22T00:33:03;97845.75;;;22.61;47.13
50057;BME280;36875;49.468;11.200;2023-07-22T00:35:29;97845.75;;;22.61;47.19
50057;BME280;36875;49.468;11.200;2023-07-22T00:37:55;97840.25;;;22.61;47.08
50057;BME280;36875;49.468;11.200;2023-07-22T00:40:23;97844.13;;;22.60;47.08
50057;BME280;36875;49.468;11.200;2023-07-22T00:42:49;97833.94;;;22.60;47.00
50057;BME280;36875;49.468;11.200;2023-07-22T00:45:14;97843.31;;;22.59;47.05
50057;BME280;36875;49.468;11.200;2023-07-22T00:47:40;97837.84;;;22.59;47.08
50057;BME280;36875;49.468;11.200;2023-07-22T00:50:07;97839.75;;;22.59;46.94
50057;BME280;36875;49.468;11.200;2023-07-22T00:52:33;97833.47;;;22.58;47.00
50057;BME280;36875;49.468;11.200;2023-07-22T00:55:00;97827.19;;;22.58;47.03
50057;BME280;36875;49.468;11.200;2023-07-22T00:57:26;97836.53;;;22.57;47.12
50057;BME280;36875;49.468;11.200;2023-07-22T00:59:51;97834.63;;;22.57;46.77
50057;BME280;36875;49.468;11.200;2023-07-22T01:02:17;97832.69;;;22.58;46.88
50057;BME280;36875;49.468;11.200;2023-07-22T01:04:43;97833.81;;;22.57;46.82
50057;BME280;36875;49.468;11.200;2023-07-22T01:07:09;97824.78;;;22.56;47.09
50057;BME280;36875;49.468;11.200;2023-07-22T01:09:35;97822.03;;;22.56;46.77
50057;BME280;36875;49.468;11.200;2023-07-22T01:12:04;97834.97;;;22.56;46.73
50057;BME280;36875;49.468;11.200;2023-07-22T01:14:32;97830.59;;;22.55;46.85
50057;BME280;36875;49.468;11.200;2023-07-22T01:16:58;97831.38;;;22.55;46.83
50057;BME280;36875;49.468;11.200;2023-07-22T01:19:24;97832.22;;;22.56;46.79
50057;BME280;36875;49.468;11.200;2023-07-22T01:21:50;97825.09;;;22.55;46.68
50057;BME280;36875;49.468;11.200;2023-07-22T01:24:17;97818.03;;;22.54;46.63
50057;BME280;36875;49.468;11.200;2023-07-22T01:26:43;97816.41;;;22.52;46.80
50057;BME280;36875;49.468;11.200;2023-07-22T01:29:09;97824.63;;;22.52;46.87
50057;BME280;36875;49.468;11.200;2023-07-22T01:31:35;97821.91;;;22.52;46.80
50057;BME280;36875;49.468;11.200;2023-07-22T01:34:03;97821.91;;;22.52;46.80
50057;BME280;36875;49.468;11.200;2023-07-22T01:36:29;97830.13;;;22.52;46.75
50057;BME280;36875;49.468;11.200;2023-07-22T01:38:55;97820.28;;;22.51;46.85
50057;BME280;36875;49.468;11.200;2023-07-22T01:41:21;97825.75;;;22.51;46.78
50057;BME280;36875;49.468;11.200;2023-07-22T01:43:47;97817.53;;;22.51;46.51
50057;BME280;36875;49.468;11.200;2023-07-22T01:46:14;97819.47;;;22.51;46.82
50057;BME280;36875;49.468;11.200;2023-07-22T01:48:39;97819.00;;;22.49;46.71
50057;BME280;36875;49.468;11.200;2023-07-22T01:51:05;97819.81;;;22.49;46.61
50057;BME280;36875;49.468;11.200;2023-07-22T01:53:30;97815.16;;;22.50;46.47
50057;BME280;36875;49.468;11.200;2023-07-22T01:55:57;97810.44;;;22.50;46.58
50057;BME280;36875;49.468;11.200;2023-07-22T01:58:24;97817.41;;;22.48;46.70
50057;BME280;36875;49.468;11.200;2023-07-22T02:00:49;97813.84;;;22.47;46.81
50057;BME280;36875;49.468;11.200;2023-07-22T02:03:15;97804.81;;;22.47;46.76
50057;BME280;36875;49.468;11.200;2023-07-22T02:05:41;97815.47;;;22.48;46.51
50057;BME280;36875;49.468;11.200;2023-07-22T02:08:06;97813.84;;;22.47;46.81
50057;BME280;36875;49.468;11.200;2023-07-22T02:10:32;97813.84;;;22.47;46.59
50057;BME280;36875;49.468;11.200;2023-07-22T02:12:57;97814.16;;;22.46;46.63
50057;BME280;36875;49.468;11.200;2023-07-22T02:15:24;97812.91;;;22.43;46.51
50057;BME280;36875;49.468;11.200;2023-07-22T02:17:49;97820.00;;;22.44;46.72
50057;BME280;36875;49.468;11.200;2023-07-22T02:20:15;97816.13;;;22.45;46.66
50057;BME280;36875;49.468;11.200;2023-07-22T02:22:41;97818.38;;;22.43;46.72
50057;BME280;36875;49.468;11.200;2023-07-22T02:25:07;97825.00;;;22.42;46.78
50057;BME280;36875;49.468;11.200;2023-07-22T02:27:32;97828.22;;;22.44;46.55
50057;BME280;36875;49.468;11.200;2023-07-22T02:29:58;97827.72;;;22.42;46.73
50057;BME280;36875;49.468;11.200;2023-07-22T02:32:25;97833.22;;;22.42;46.49
50057;BME280;36875;49.468;11.200;2023-07-22T02:34:50;97834.84;;;22.43;46.63
50057;BME280;36875;49.468;11.200;2023-07-22T02:37:15;97835.50;;;22.40;46.43
50057;BME280;36875;49.468;11.200;2023-07-22T02:39:41;97835.50;;;22.40;46.32
50057;BME280;36875;49.468;11.200;2023-07-22T02:42:06;97833.91;;;22.39;46.57
50057;BME280;36875;49.468;11.200;2023-07-22T02:44:32;97831.16;;;22.39;46.53
50057;BME280;36875;49.468;11.200;2023-07-22T02:46:57;97842.44;;;22.38;46.46
50057;BME280;36875;49.468;11.200;2023-07-22T02:49:24;97837.28;;;22.36;46.45
50057;BME280;36875;49.468;11.200;2023-07-22T02:51:50;97849.03;;;22.37;46.49
50057;BME280;36875;49.468;11.200;2023-07-22T02:54:15;97848.25;;;22.36;46.40
50057;BME280;36875;49.468;11.200;2023-07-22T02:56:42;97845.50;;;22.36;46.31
50057;BME280;36875;49.468;11.200;2023-07-22T02:59:09;97842.28;;;22.34;46.35
50057;BME280;36875;49.468;11.200;2023-07-22T03:01:37;97849.41;;;22.35;46.16
50057;BME280;36875;49.468;11.200;2023-07-22T03:04:03;97854.38;;;22.33;46.17
50057;BME280;36875;49.468;11.200;2023-07-22T03:06:31;97851.63;;;22.33;46.20
50057;BME280;36875;49.468;11.200;2023-07-22T03:08:56;97852.78;;;22.32;46.07
50057;BME280;36875;49.468;11.200;2023-07-22T03:11:23;97847.31;;;22.32;46.06
50057;BME280;36875;49.468;11.200;2023-07-22T03:13:50;97849.25;;;22.31;46.02
50057;BME280;36875;49.468;11.200;2023-07-22T03:16:15;97848.44;;;22.31;46.03
50057;BME280;36875;49.468;11.200;2023-07-22T03:18:41;97849.56;;;22.30;46.13
50057;BME280;36875;49.468;11.200;2023-07-22T03:21:08;97842.47;;;22.29;45.88
50057;BME280;36875;49.468;11.200;2023-07-22T03:23:35;97856.19;;;22.29;46.08
50057;BME280;36875;49.468;11.200;2023-07-22T03:26:01;97858.44;;;22.27;45.85
50057;BME280;36875;49.468;11.200;2023-07-22T03:28:26;97855.69;;;22.27;45.78
50057;BME280;36875;49.468;11.200;2023-07-22T03:30:52;97865.88;;;22.26;46.00
50057;BME280;36875;49.468;11.200;2023-07-22T03:33:18;97870.56;;;22.26;45.70
50057;BME280;36875;49.468;11.200;2023-07-22T03:35:43;97866.16;;;22.25;45.75
50057;BME280;36875;49.468;11.200;2023-07-22T03:38:09;97868.91;;;22.25;45.87
50057;BME280;36875;49.468;11.200;2023-07-22T03:40:36;97870.84;;;22.24;45.89
50057;BME280;36875;49.468;11.200;2023-07-22T03:43:03;97871.97;;;22.23;45.67
50057;BME280;36875;49.468;11.200;2023-07-22T03:45:28;97875.84;;;22.22;45.88
50057;BME280;36875;49.468;11.200;2023-07-22T03:47:56;97879.41;;;22.23;45.74
50057;BME280;36875;49.468;11.200;2023-07-22T03:50:22;97876.19;;;22.21;45.64
50057;BME280;36875;49.468;11.200;2023-07-22T03:52:47;97887.78;;;22.18;45.52
50057;BME280;36875;49.468;11.200;2023-07-22T03:55:13;97896.47;;;22.20;45.55
50057;BME280;36875;49.468;11.200;2023-07-22T03:57:40;97894.88;;;22.19;45.61
50057;BME280;36875;49.468;11.200;2023-07-22T04:00:06;97898.44;;;22.19;45.72
50057;BME280;36875;49.468;11.200;2023-07-22T04:02:35;97899.22;;;22.20;45.52
50057;BME280;36875;49.468;11.200;2023-07-22T04:05:01;97897.63;;;22.19;45.50
50057;BME280;36875;49.468;11.200;2023-07-22T04:07:26;97903.13;;;22.19;45.54
50057;BME280;36875;49.468;11.200;2023-07-22T04:09:52;97899.53;;;22.18;45.50
50057;BME280;36875;49.468;11.200;2023-07-22T04:12:17;97894.06;;;22.18;45.34
50057;BME280;36875;49.468;11.200;2023-07-22T04:14:44;97895.22;;;22.17;45.67
50057;BME280;36875;49.468;11.200;2023-07-22T04:17:10;97907.28;;;22.16;45.59
50057;BME280;36875;49.468;11.200;2023-07-22T04:19:35;97899.53;;;22.18;45.60
50057;BME280;36875;49.468;11.200;2023-07-22T04:22:01;97906.50;;;22.16;45.59
50057;BME280;36875;49.468;11.200;2023-07-22T04:24:29;97897.16;;;22.17;45.67
50057;BME280;36875;49.468;11.200;2023-07-22T04:26:56;97898.75;;;22.18;45.44
50057;BME280;36875;49.468;11.200;2023-07-22T04:29:21;97904.88;;;22.14;45.51
50057;BME280;36875;49.468;11.200;2023-07-22T04:31:48;97906.03;;;22.13;45.37
50057;BME280;36875;49.468;11.200;2023-07-22T04:34:13;97895.06;;;22.13;45.66
50057;BME280;36875;49.468;11.200;2023-07-22T04:36:39;97908.75;;;22.13;45.55
50057;BME280;36875;49.468;11.200;2023-07-22T04:39:04;97907.97;;;22.13;45.46
50057;BME280;36875;49.468;11.200;2023-07-22T04:41:30;97911.50;;;22.13;45.52
50057;BME280;36875;49.468;11.200;2023-07-22T04:43:57;97909.09;;;22.12;45.81
50057;BME280;36875;49.468;11.200;2023-07-22T04:46:23;97911.50;;;22.13;45.54
50057;BME280;36875;49.468;11.200;2023-07-22T04:48:50;97906.34;;;22.12;45.59
50057;BME280;36875;49.468;11.200;2023-07-22T04:51:16;97911.81;;;22.12;45.44
50057;BME280;36875;49.468;11.200;2023-07-22T04:53:41;97908.75;;;22.13;45.68
50057;BME280;36875;49.468;11.200;2023-07-22T04:56:07;97906.03;;;22.13;45.40
50057;BME280;36875;49.468;11.200;2023-07-22T04:58:32;97897.78;;;22.13;45.54
50057;BME280;36875;49.468;11.200;2023-07-22T05:00:58;97904.06;;;22.14;45.63
50057;BME280;36875;49.468;11.200;2023-07-22T05:03:23;97906.81;;;22.14;45.87
50057;BME280;36875;49.468;11.200;2023-07-22T05:05:53;97911.19;;;22.15;45.57
50057;BME280;36875;49.468;11.200;2023-07-22T05:08:18;97909.72;;;22.18;45.67
50057;BME280;36875;49.468;11.200;2023-07-22T05:10:44;97905.38;;;22.17;45.55
50057;BME280;36875;49.468;11.200;2023-07-22T05:13:10;97922.94;;;22.16;45.75
50057;BME280;36875;49.468;11.200;2023-07-22T05:15:35;97929.22;;;22.16;45.90
50057;BME280;36875;49.468;11.200;2023-07-22T05:18:01;97931.97;;;22.16;45.80
50057;BME280;36875;49.468;11.200;2023-07-22T05:20:26;97933.09;;;22.15;45.83
50057;BME280;36875;49.468;11.200;2023-07-22T05:22:53;97931.16;;;22.16;45.63
50057;BME280;36875;49.468;11.200;2023-07-22T05:25:18;97933.91;;;22.16;45.59
50057;BME280;36875;49.468;11.200;2023-07-22T05:27:44;97938.59;;;22.15;45.80
50057;BME280;36875;49.468;11.200;2023-07-22T05:30:10;97936.16;;;22.13;45.83
50057;BME280;36875;49.468;11.200;2023-07-22T05:32:36;97930.69;;;22.13;45.75
50057;BME280;36875;49.468;11.200;2023-07-22T05:35:01;97929.53;;;22.14;45.79
50057;BME280;36875;49.468;11.200;2023-07-22T05:37:29;97929.53;;;22.14;45.70
50057;BME280;36875;49.468;11.200;2023-07-22T05:39:57;97933.09;;;22.15;45.76
50057;BME280;36875;49.468;11.200;2023-07-22T05:42:23;97926.47;;;22.16;45.78
50057;BME280;36875;49.468;11.200;2023-07-22T05:44:48;97927.31;;;22.17;45.48
50057;BME280;36875;49.468;11.200;2023-07-22T05:47:14;97941.00;;;22.17;45.74
50057;BME280;36875;49.468;11.200;2023-07-22T05:49:39;97938.28;;;22.17;45.92
50057;BME280;36875;49.468;11.200;2023-07-22T05:52:06;97938.28;;;22.17;45.85
50057;BME280;36875;49.468;11.200;2023-07-22T05:54:31;97943.75;;;22.17;45.83
50057;BME280;36875;49.468;11.200;2023-07-22T05:56:58;97934.38;;;22.18;45.49
50057;BME280;36875;49.468;11.200;2023-07-22T05:59:24;97939.88;;;22.18;45.86
50057;BME280;36875;49.468;11.200;2023-07-22T06:01:49;97935.84;;;22.15;45.81
50057;BME280;36875;49.468;11.200;2023-07-22T06:04:15;97943.75;;;22.17;45.96
50057;BME280;36875;49.468;11.200;2023-07-22T06:06:42;97944.22;;;22.19;45.80
50057;BME280;36875;49.468;11.200;2023-07-22T06:09:08;97948.09;;;22.18;45.86
50057;BME280;36875;49.468;11.200;2023-07-22T06:11:33;97952.78;;;22.17;45.96
50057;BME280;36875;49.468;11.200;2023-07-22T06:14:00;97952.28;;;22.15;46.00
50057;BME280;36875;49.468;11.200;2023-07-22T06:16:26;97956.94;;;22.14;46.09
50057;BME280;36875;49.468;11.200;2023-07-22T06:18:51;97954.56;;;22.13;45.79
50057;BME280;36875;49.468;11.200;2023-07-22T06:21:16;97961.63;;;22.14;45.80
50057;BME280;36875;49.468;11.200;2023-07-22T06:23:42;97964.69;;;22.12;45.97
50057;BME280;36875;49.468;11.200;2023-07-22T06:26:08;97967.13;;;22.14;46.29
50057;BME280;36875;49.468;11.200;2023-07-22T06:28:33;97973.75;;;22.13;45.92
50057;BME280;36875;49.468;11.200;2023-07-22T06:31:00;97980.03;;;22.13;46.18
50057;BME280;36875;49.468;11.200;2023-07-22T06:33:25;97982.28;;;22.11;46.07
50057;BME280;36875;49.468;11.200;2023-07-22T06:35:51;97989.69;;;22.11;46.02
50057;BME280;36875;49.468;11.200;2023-07-22T06:38:16;97986.13;;;22.10;46.01
50057;BME280;36875;49.468;11.200;2023-07-22T06:40:42;97984.53;;;22.09;46.28
50057;BME280;36875;49.468;11.200;2023-07-22T06:43:08;97984.53;;;22.09;46.05
50057;BME280;36875;49.468;11.200;2023-07-22T06:45:33;97984.53;;;22.09;46.20
50057;BME280;36875;49.468;11.200;2023-07-22T06:50:25;97991.63;;;22.10;46.12
50057;BME280;36875;49.468;11.200;2023-07-22T06:52:51;97997.91;;;22.11;45.76
50057;BME280;36875;49.468;11.200;2023-07-22T06:57:42;97998.25;;;22.09;46.19
50057;BME280;36875;49.468;11.200;2023-07-22T07:02:35;98001.47;;;22.11;46.22
50057;BME280;36875;49.468;11.200;2023-07-22T07:05:02;97998.25;;;22.09;46.08
50057;BME280;36875;49.468;11.200;2023-07-22T07:07:29;97996.00;;;22.11;46.16
50057;BME280;36875;49.468;11.200;2023-07-22T07:09:54;97991.63;;;22.10;46.19
50057;BME280;36875;49.468;11.200;2023-07-22T07:12:20;97997.09;;;22.10;46.20
50057;BME280;36875;49.468;11.200;2023-07-22T07:14:45;97993.25;;;22.11;46.37
50057;BME280;36875;49.468;11.200;2023-07-22T07:17:11;97997.91;;;22.11;46.17
50057;BME280;36875;49.468;11.200;2023-07-22T07:19:36;98002.59;;;22.10;46.22
50057;BME280;36875;49.468;11.200;2023-07-22T07:22:03;98008.84;;;22.11;46.17
50057;BME280;36875;49.468;11.200;2023-07-22T07:24:29;98002.59;;;22.10;46.54
50057;BME280;36875;49.468;11.200;2023-07-22T07:26:54;98006.13;;;22.11;46.28
50057;BME280;36875;49.468;11.200;2023-07-22T07:29:20;98008.84;;;22.11;46.42
50057;BME280;36875;49.468;11.200;2023-07-22T07:34:11;98015.97;;;22.12;46.38
50057;BME280;36875;49.468;11.200;2023-07-22T07:36:36;98018.72;;;22.12;46.35
50057;BME280;36875;49.468;11.200;2023-07-22T07:39:03;98016.75;;;22.12;46.35
50057;BME280;36875;49.468;11.200;2023-07-22T07:41:30;98017.59;;;22.13;46.33
50057;BME280;36875;49.468;11.200;2023-07-22T07:43:55;98018.38;;;22.13;46.41
50057;BME280;36875;49.468;11.200;2023-07-22T07:46:22;98018.72;;;22.12;46.37
50057;BME280;36875;49.468;11.200;2023-07-22T07:48:49;98022.25;;;22.12;46.33
50057;BME280;36875;49.468;11.200;2023-07-22T07:51:15;98026.94;;;22.12;46.53
50057;BME280;36875;49.468;11.200;2023-07-22T07:53:41;98028.88;;;22.11;46.61
50057;BME280;36875;49.468;11.200;2023-07-22T07:56:10;98033.88;;;22.09;46.77
50057;BME280;36875;49.468;11.200;2023-07-22T08:01:02;98035.47;;;22.10;46.66
50057;BME280;36875;49.468;11.200;2023-07-22T08:03:27;98040.94;;;22.10;46.64
50057;BME280;36875;49.468;11.200;2023-07-22T08:05:53;98030.78;;;22.11;46.46
50057;BME280;36875;49.468;11.200;2023-07-22T08:13:11;98031.63;;;22.11;46.15
50057;BME280;36875;49.468;11.200;2023-07-22T08:15:36;98033.22;;;22.12;46.03
50057;BME280;36875;49.468;11.200;2023-07-22T08:18:02;98026.94;;;22.12;46.07
50057;BME280;36875;49.468;11.200;2023-07-22T08:22:54;98024.81;;;22.09;46.00
50057;BME280;36875;49.468;11.200;2023-07-22T08:25:19;98027.88;;;22.07;46.08
50057;BME280;36875;49.468;11.200;2023-07-22T08:27:45;98020.97;;;22.01;45.58
50057;BME280;36875;49.468;11.200;2023-07-22T08:30:12;98018.69;;;21.94;45.40
50057;BME280;36875;49.468;11.200;2023-07-22T08:32:37;98024.50;;;21.93;45.37
50057;BME280;36875;49.468;11.200;2023-07-22T08:35:04;98020.63;;;21.94;45.17
50057;BME280;36875;49.468;11.200;2023-07-22T08:37:30;98022.41;;;21.99;45.15
50057;BME280;36875;49.468;11.200;2023-07-22T08:39:56;98020.47;;;21.99;45.16
50057;BME280;36875;49.468;11.200;2023-07-22T08:42:23;98016.63;;;22.00;45.11
50057;BME280;36875;49.468;11.200;2023-07-22T08:44:52;98016.13;;;21.89;45.25
50057;BME280;36875;49.468;11.200;2023-07-22T08:47:21;98019.97;;;21.80;45.25
50057;BME280;36875;49.468;11.200;2023-07-22T08:49:51;98016.94;;;21.90;45.27
50057;BME280;36875;49.468;11.200;2023-07-22T08:52:18;98018.06;;;22.06;45.34
50057;BME280;36875;49.468;11.200;2023-07-22T08:54:44;98016.13;;;22.16;45.09
50057;BME280;36875;49.468;11.200;2023-07-22T08:57:11;98010.00;;;22.19;44.98
50057;BME280;36875;49.468;11.200;2023-07-22T08:59:37;98014.66;;;22.18;45.14
50057;BME280;36875;49.468;11.200;2023-07-22T09:02:03;98019.34;;;22.18;45.14
50057;BME280;36875;49.468;11.200;2023-07-22T09:04:32;98015.50;;;22.19;45.17
50057;BME280;36875;49.468;11.200;2023-07-22T09:06:57;98017.25;;;22.23;44.96
50057;BME280;36875;49.468;11.200;2023-07-22T09:09:25;98013.22;;;22.29;44.56
50057;BME280;36875;49.468;11.200;2023-07-22T09:11:51;98009.06;;;22.32;44.81
50057;BME280;36875;49.468;11.200;2023-07-22T09:14:19;98001.47;;;22.38;44.61
50057;BME280;36875;49.468;11.200;2023-07-22T09:16:44;97998.72;;;22.38;44.68
50057;BME280;36875;49.468;11.200;2023-07-22T09:19:10;98003.72;;;22.36;44.79
50057;BME280;36875;49.468;11.200;2023-07-22T09:21:36;98004.69;;;22.31;45.11
50057;BME280;36875;49.468;11.200;2023-07-22T09:24:19;97991.66;;;22.28;45.00
50057;BME280;36875;49.468;11.200;2023-07-22T09:26:45;97991.66;;;22.28;45.06
50057;BME280;36875;49.468;11.200;2023-07-22T09:29:11;97993.72;;;22.31;45.24
50057;BME280;36875;49.468;11.200;2023-07-22T09:31:48;97988.72;;;22.33;45.21
50057;BME280;36875;49.468;11.200;2023-07-22T09:34:14;97989.53;;;22.33;45.04
50057;BME280;36875;49.468;11.200;2023-07-22T09:36:51;97982.59;;;22.36;45.41
50057;BME280;36875;49.468;11.200;2023-07-22T09:39:17;97988.09;;;22.36;45.41
50057;BME280;36875;49.468;11.200;2023-07-22T09:41:43;97981.00;;;22.35;45.32
50057;BME280;36875;49.468;11.200;2023-07-22T09:44:09;97975.53;;;22.35;44.90
50057;BME280;36875;49.468;11.200;2023-07-22T09:46:35;97978.72;;;22.37;45.14
50057;BME280;36875;49.468;11.200;2023-07-22T09:49:03;97979.53;;;22.38;44.47
50057;BME280;36875;49.468;11.200;2023-07-22T09:51:33;97969.53;;;22.33;44.91
50057;BME280;36875;49.468;11.200;2023-07-22T09:54:01;97966.50;;;22.26;44.70
50057;BME280;36875;49.468;11.200;2023-07-22T09:56:27;97978.06;;;22.23;44.71
50057;BME280;36875;49.468;11.200;2023-07-22T09:58:52;97966.31;;;22.22;44.58
50057;BME280;36875;49.468;11.200;2023-07-22T10:01:20;97962.78;;;22.30;44.48
50057;BME280;36875;49.468;11.200;2023-07-22T10:03:49;97958.56;;;22.24;44.35
50057;BME280;36875;49.468;11.200;2023-07-22T10:06:21;97955.53;;;22.26;44.35
50057;BME280;36875;49.468;11.200;2023-07-22T10:08:47;97955.03;;;22.32;44.44
50057;BME280;36875;49.468;11.200;2023-07-22T10:11:15;97954.06;;;22.37;44.49
50057;BME280;36875;49.468;11.200;2023-07-22T10:13:41;97953.38;;;22.40;44.41
50057;BME280;36875;49.468;11.200;2023-07-22T10:16:07;97948.72;;;22.41;44.25
50057;BME280;36875;49.468;11.200;2023-07-22T10:18:33;97947.09;;;22.40;44.25
50057;BME280;36875;49.468;11.200;2023-07-22T10:21:00;97935.19;;;22.44;44.41
50057;BME280;36875;49.468;11.200;2023-07-22T10:23:27;97935.81;;;22.41;44.12
50057;BME280;36875;49.468;11.200;2023-07-22T10:25:53;97936.31;;;22.35;44.13
50057;BME280;36875;49.468;11.200;2023-07-22T10:28:21;97927.75;;;22.36;44.32
50057;BME280;36875;49.468;11.200;2023-07-22T10:30:48;97938.72;;;22.36;44.19
50057;BME280;36875;49.468;11.200;2023-07-22T10:33:15;97921.16;;;22.37;44.13
50057;BME280;36875;49.468;11.200;2023-07-22T10:35:42;97927.75;;;22.36;44.17
50057;BME280;36875;49.468;11.200;2023-07-22T10:38:10;97921.16;;;22.37;44.13
50057;BME280;36875;49.468;11.200;2023-07-22T10:40:44;97926.66;;;22.37;44.20
50057;BME280;36875;49.468;11.200;2023-07-22T10:43:10;97931.66;;;22.35;44.15
50057;BME280;36875;49.468;11.200;2023-07-22T10:45:48;97922.13;;;22.32;44.34
50057;BME280;36875;49.468;11.200;2023-07-22T10:48:14;97918.91;;;22.30;43.74
50057;BME280;36875;49.468;11.200;2023-07-22T10:50:41;97924.72;;;22.29;43.91
50057;BME280;36875;49.468;11.200;2023-07-22T10:53:10;97926.34;;;22.30;44.17
50057;BME280;36875;49.468;11.200;2023-07-22T10:56:02;97931.66;;;22.26;44.20
50057;BME280;36875;49.468;11.200;2023-07-22T10:58:29;97936.00;;;22.27;43.90
50057;BME280;36875;49.468;11.200;2023-07-22T11:00:56;97932.13;;;22.28;44.27
50057;BME280;36875;49.468;11.200;2023-07-22T11:04:04;97938.41;;;22.29;44.10
50057;BME280;36875;49.468;11.200;2023-07-22T11:06:30;97925.84;;;22.28;44.31
50057;BME280;36875;49.468;11.200;2023-07-22T11:08:56;97916.81;;;22.27;44.66
50057;BME280;36875;49.468;11.200;2023-07-22T11:11:34;97926.34;;;22.30;44.51
50057;BME280;36875;49.468;11.200;2023-07-22T11:14:13;97918.75;;;22.36;44.63
50057;BME280;36875;49.468;11.200;2023-07-22T11:16:40;97916.47;;;22.38;45.00
50057;BME280;36875;49.468;11.200;2023-07-22T11:19:06;97914.84;;;22.45;44.82
50057;BME280;36875;49.468;11.200;2023-07-22T11:21:32;97906.94;;;22.44;44.86
50057;BME280;36875;49.468;11.200;2023-07-22T11:23:57;97905.19;;;22.39;44.74
50057;BME280;36875;49.468;11.200;2023-07-22T11:26:23;97895.81;;;22.40;44.61
50057;BME280;36875;49.468;11.200;2023-07-22T11:28:48;97900.50;;;22.40;44.47
50057;BME280;36875;49.468;11.200;2023-07-22T11:31:14;97898.06;;;22.38;44.54
50057;BME280;36875;49.468;11.200;2023-07-22T11:33:41;97898.06;;;22.38;44.41
50057;BME280;36875;49.468;11.200;2023-07-22T11:36:09;97895.00;;;22.40;44.35
50057;BME280;36875;49.468;11.200;2023-07-22T11:38:35;97893.06;;;22.40;44.49
50057;BME280;36875;49.468;11.200;2023-07-22T11:41:02;97890.31;;;22.40;44.25
50057;BME280;36875;49.468;11.200;2023-07-22T11:43:27;97891.31;;;22.44;44.64
50057;BME280;36875;49.468;11.200;2023-07-22T11:45:53;97886.09;;;22.51;44.58
50057;BME280;36875;49.468;11.200;2023-07-22T11:48:19;97878.38;;;22.54;44.41
50057;BME280;36875;49.468;11.200;2023-07-22T11:50:46;97873.84;;;22.49;44.58
50057;BME280;36875;49.468;11.200;2023-07-22T11:53:11;97875.78;;;22.48;44.53
50057;BME280;36875;49.468;11.200;2023-07-22T11:55:38;97881.94;;;22.45;44.68
50057;BME280;36875;49.468;11.200;2023-07-22T11:58:03;97878.25;;;22.41;44.45
50057;BME280;36875;49.468;11.200;2023-07-22T12:00:29;97878.72;;;22.43;44.39
50057;BME280;36875;49.468;11.200;2023-07-22T12:02:54;97875.50;;;22.41;44.38
50057;BME280;36875;49.468;11.200;2023-07-22T12:05:22;97880.34;;;22.44;43.87
50057;BME280;36875;49.468;11.200;2023-07-22T12:07:49;97864.34;;;22.46;43.91
50057;BME280;36875;49.468;11.200;2023-07-22T12:10:15;97864.03;;;22.48;44.03
50057;BME280;36875;49.468;11.200;2023-07-22T12:12:42;97867.91;;;22.47;44.19
50057;BME280;36875;49.468;11.200;2023-07-22T12:15:09;97858.19;;;22.49;44.23
50057;BME280;36875;49.468;11.200;2023-07-22T12:17:47;97860.75;;;22.55;43.99
50057;BME280;36875;49.468;11.200;2023-07-22T12:20:13;97855.41;;;22.58;43.94
50057;BME280;36875;49.468;11.200;2023-07-22T12:22:39;97854.63;;;22.58;43.95
50057;BME280;36875;49.468;11.200;2023-07-22T12:25:07;97834.47;;;22.54;43.81
50057;BME280;36875;49.468;11.200;2023-07-22T12:27:33;97843.19;;;22.56;43.56
50057;BME280;36875;49.468;11.200;2023-07-22T12:29:58;97845.59;;;22.57;43.38
50057;BME280;36875;49.468;11.200;2023-07-22T12:32:24;97838.63;;;22.60;43.34
50057;BME280;36875;49.468;11.200;2023-07-22T12:34:49;97826.88;;;22.59;43.39
50057;BME280;36875;49.468;11.200;2023-07-22T12:37:14;97831.88;;;22.57;43.45
50057;BME280;36875;49.468;11.200;2023-07-22T12:39:40;97834.28;;;22.59;43.70
50057;BME280;36875;49.468;11.200;2023-07-22T12:42:07;97813.97;;;22.60;43.44
50057;BME280;36875;49.468;11.200;2023-07-22T12:44:32;97810.28;;;22.56;43.42
50057;BME280;36875;49.468;11.200;2023-07-22T12:46:58;97819.94;;;22.53;43.58
50057;BME280;36875;49.468;11.200;2023-07-22T12:49:23;97810.28;;;22.56;43.80
50057;BME280;36875;49.468;11.200;2023-07-22T12:51:49;97797.69;;;22.55;43.44
50057;BME280;36875;49.468;11.200;2023-07-22T12:54:14;97799.16;;;22.52;43.28
50057;BME280;36875;49.468;11.200;2023-07-22T12:56:40;97805.75;;;22.51;43.39
50057;BME280;36875;49.468;11.200;2023-07-22T12:59:09;97799.47;;;22.50;43.27
50057;BME280;36875;49.468;11.200;2023-07-22T13:01:35;97801.22;;;22.55;43.39
50057;BME280;36875;49.468;11.200;2023-07-22T13:04:04;97792.19;;;22.55;42.56
50057;BME280;36875;49.468;11.200;2023-07-22T13:06:29;97787.38;;;22.51;42.82